| time (UTC) | temp C | wind direction | speed KPH | gust KPH | rain 1hr cm | rain 24hr cm | rain mn cm | humidity % | barometer mb |
| 20260904131105 | 18 | 264 | 3.2 | 6.4 | 0.33 | 9.27 | 8.94 | 99 | 1015.9 |
| 20260904130022 | 18 | 206 | 4.8 | 17.7 | 0.30 | 9.09 | 8.76 | 99 | 1014.7 |
| 20260904125018 | 18 | 214 | 4.8 | 14.5 | 0.33 | 9.09 | 8.76 | 99 | 1014.5 |
| 20260904124035 | 18 | 197 | 4.8 | 12.9 | 0.33 | 9.07 | 8.74 | 99 | 1014.5 |
| 20260904123032 | 18 | 192 | 3.2 | 9.7 | 0.43 | 9.07 | 8.74 | 99 | 1014.4 |
| 20260904122029 | 18 | 193 | 4.8 | 12.9 | 0.76 | 9.07 | 8.74 | 99 | 1014.5 |
| 20260904121025 | 18 | 184 | 4.8 | 12.9 | 1.02 | 8.94 | 8.61 | 99 | 1014.7 |
| 20260904120022 | 18 | 205 | 4.8 | 12.9 | 1.27 | 8.79 | 8.46 | 99 | 1015.2 |
| 20260904115039 | 18 | 172 | 3.2 | 9.7 | 1.68 | 8.76 | 8.43 | 99 | 1014.6 |
| 20260904114015 | 18 | 191 | 3.2 | 11.3 | 1.80 | 8.74 | 8.41 | 99 | 1015.2 |
| 20260904113032 | 18 | 202 | 1.6 | 4.8 | 2.29 | 8.64 | 8.31 | 99 | 1015.5 |
| 20260904112029 | 18 | 197 | 1.6 | 6.4 | 2.57 | 8.31 | 7.98 | 99 | 1015.3 |
| 20260904111026 | 18 | 247 | 1.6 | 9.7 | 2.64 | 7.92 | 7.59 | 99 | 1015.5 |
| 20260904110024 | 18 | 139 | 1.6 | 6.4 | 2.46 | 7.52 | 7.19 | 99 | 1015.3 |
| 20260904105019 | 18 | 346 | 1.6 | 9.7 | 3.07 | 7.09 | 6.76 | 99 | 1015.7 |
| 20260904104036 | 18 | 357 | 3.2 | 16.1 | 3.05 | 6.93 | 6.60 | 99 | 1015.2 |
| 20260904103053 | 18 | 247 | 1.6 | 6.4 | 2.49 | 6.35 | 6.02 | 99 | 1015.1 |
| 20260904102030 | 18 | 40 | 4.8 | 20.9 | 1.91 | 5.74 | 5.41 | 99 | 1015.3 |
| 20260904101028 | 18 | 19 | 3.2 | 11.3 | 1.68 | 5.28 | 4.95 | 99 | 1016.6 |
| 20260904100023 | 18 | 293 | 1.6 | 4.8 | 1.60 | 5.05 | 4.72 | 99 | 1014.9 |
| 20260904095022 | 18 | 93 | 3.2 | 12.9 | 0.64 | 4.01 | 3.68 | 99 | 1014.6 |
| 20260904094057 | 18 | 228 | 4.8 | 17.7 | 0.61 | 3.89 | 3.56 | 99 | 1013.2 |
| 20260904093034 | 18 | 209 | 4.8 | 12.9 | 0.89 | 3.86 | 3.53 | 99 | 1013.1 |
| 20260904092031 | 19 | 145 | 4.8 | 16.1 | 2.57 | 3.84 | 3.51 | 99 | 1013.5 |
| 20260904091048 | 19 | 172 | 1.6 | 9.7 | 2.62 | 3.61 | 3.28 | 99 | 1013.9 |
| 20260904090024 | 19 | 172 | 3.2 | 6.4 | 2.46 | 3.45 | 3.12 | 99 | 1013.8 |
| 20260904085019 | 19 | 147 | 3.2 | 9.7 | 2.49 | 3.38 | 3.05 | 99 | 1013.5 |
| 20260904084035 | 20 | 111 | 4.8 | 30.6 | 2.49 | 3.28 | 2.95 | 99 | 1014.1 |
| 20260904083031 | 20 | 1 | 6.4 | 25.7 | 2.29 | 2.97 | 2.64 | 99 | 1016.9 |
| 20260904082028 | 20 | 358 | 8.0 | 29.0 | 0.74 | 1.27 | 0.94 | 99 | 1014.9 |
| 20260904081044 | 20 | 208 | 6.4 | 24.1 | 0.48 | 0.99 | 0.66 | 99 | 1011.7 |
| 20260904080021 | 20 | 203 | 4.8 | 12.9 | 0.51 | 0.99 | 0.66 | 99 | 1011.6 |
| 20260904075017 | 21 | 170 | 4.8 | 14.5 | 0.43 | 0.89 | 0.56 | 99 | 1012.3 |
| 20260904074033 | 21 | 178 | 3.2 | 11.3 | 0.33 | 0.79 | 0.46 | 99 | 1012.1 |
| 20260904073030 | 21 | 166 | 3.2 | 9.7 | 0.23 | 0.69 | 0.36 | 99 | 1013.0 |
| 20260904072027 | 21 | 220 | 1.6 | 4.8 | 0.10 | 0.53 | 0.20 | 99 | 1013.3 |
| 20260904071025 | 21 | 208 | 1.6 | 4.8 | 0.10 | 0.51 | 0.18 | 99 | 1013.4 |
| 20260904070020 | 21 | 252 | 1.6 | 4.8 | 0.08 | 0.48 | 0.15 | 99 | 1013.5 |
| 20260904065018 | 21 | 213 | 1.6 | 4.8 | 0.05 | 0.46 | 0.13 | 99 | 1013.3 |
| 20260904064033 | 21 | 271 | 1.6 | 3.2 | 0.05 | 0.46 | 0.13 | 99 | 1013.5 |
| 20260904063028 | 21 | 272 | 1.6 | 4.8 | 0.08 | 0.46 | 0.13 | 99 | 1014.0 |
| 20260904062024 | 20 | 303 | 0.0 | 1.6 | 0.10 | 0.43 | 0.10 | 99 | 1014.2 |
| 20260904061021 | 20 | 255 | 0.0 | 3.2 | 0.08 | 0.41 | 0.08 | 99 | 1014.2 |
| 20260904060037 | 20 | 255 | 0.0 | 4.8 | 0.08 | 0.41 | 0.08 | 99 | 1014.2 |
| 20260904055114 | 20 | 305 | 1.6 | 6.4 | 0.08 | 0.41 | 0.08 | 99 | 1014.4 |
| 20260904054129 | 20 | 342 | 3.2 | 6.4 | 0.08 | 0.41 | 0.08 | 99 | 1014.6 |
| 20260904053026 | 20 | 354 | 1.6 | 6.4 | 0.05 | 0.38 | 0.05 | 99 | 1014.8 |
| 20260904052104 | 20 | 347 | 1.6 | 4.8 | 0.00 | 0.33 | 0.00 | 99 | 1015.1 |
| 20260904051018 | 20 | 273 | 1.6 | 3.2 | 0.03 | 0.33 | 0.00 | 99 | 1014.5 |
| 20260904050035 | 20 | 318 | 0.0 | 1.6 | 0.03 | 0.33 | 0.00 | 99 | 1014.0 |
| 20260904045032 | 20 | 6 | 0.0 | 1.6 | 0.03 | 0.33 | 0.33 | 99 | 1014.5 |
| 20260904044028 | 20 | 225 | 0.0 | 4.8 | 0.03 | 0.33 | 0.33 | 99 | 1014.4 |
| 20260904043024 | 20 | 121 | 1.6 | 6.4 | 0.03 | 0.33 | 0.33 | 99 | 1014.0 |
| 20260904042022 | 20 | 194 | 1.6 | 6.4 | 0.03 | 0.33 | 0.33 | 99 | 1014.6 |
| 20260904041018 | 20 | 190 | 1.6 | 4.8 | 0.00 | 0.30 | 0.30 | 99 | 1014.6 |
| 20260904040035 | 20 | 359 | 1.6 | 4.8 | 0.00 | 0.30 | 0.30 | 99 | 1015.2 |
| 20260904035032 | 20 | 350 | 4.8 | 16.1 | 0.00 | 0.30 | 0.30 | 99 | 1015.2 |
| 20260904034109 | 20 | 359 | 4.8 | 16.1 | 0.00 | 0.30 | 0.30 | 98 | 1014.9 |
| 20260904033025 | 20 | 37 | 0.0 | 1.6 | 0.00 | 0.30 | 0.30 | 98 | 1014.9 |
| 20260904032022 | 20 | 335 | 1.6 | 4.8 | 0.00 | 0.30 | 0.30 | 98 | 1015.1 |
| 20260904031019 | 20 | 106 | 0.0 | 1.6 | 0.00 | 0.30 | 0.30 | 97 | 1014.8 |
| 20260904030036 | 20 | 0.0 | 0.0 | 0.00 | 0.30 | 0.30 | 97 | 1015.0 | |
| 20260904025033 | 21 | 352 | 0.0 | 3.2 | 0.00 | 0.30 | 0.30 | 96 | 1015.0 |
| 20260904024029 | 21 | 349 | 1.6 | 3.2 | 0.00 | 0.30 | 0.30 | 96 | 1014.9 |
| 20260904023027 | 21 | 357 | 1.6 | 3.2 | 0.00 | 0.30 | 0.30 | 97 | 1015.2 |
| 20260904022043 | 21 | 335 | 1.6 | 4.8 | 0.00 | 0.30 | 0.30 | 96 | 1014.8 |
| 20260904021021 | 21 | 342 | 0.0 | 1.6 | 0.00 | 0.30 | 0.30 | 94 | 1014.5 |
| 20260904020017 | 21 | 325 | 0.0 | 1.6 | 0.00 | 0.30 | 0.30 | 93 | 1014.6 |
| 20260904015035 | 21 | 332 | 0.0 | 1.6 | 0.00 | 0.30 | 0.30 | 92 | 1014.6 |
| 20260904014051 | 21 | 352 | 1.6 | 6.4 | 0.00 | 0.30 | 0.30 | 91 | 1014.5 |
| 20260904013027 | 22 | 356 | 0.0 | 6.4 | 0.00 | 0.30 | 0.30 | 90 | 1014.3 |
| 20260904012025 | 22 | 241 | 0.0 | 1.6 | 0.00 | 0.30 | 0.30 | 90 | 1014.1 |
| 20260904011040 | 22 | 201 | 0.0 | 3.2 | 0.00 | 0.30 | 0.30 | 90 | 1013.8 |
| 20260904010017 | 22 | 218 | 0.0 | 1.6 | 0.00 | 0.30 | 0.30 | 90 | 1013.7 |
| 20260904005034 | 22 | 175 | 0.0 | 1.6 | 0.00 | 0.30 | 0.30 | 90 | 1013.5 |
| 20260904004051 | 23 | 172 | 0.0 | 1.6 | 0.00 | 0.30 | 0.30 | 88 | 1013.5 |
| 20260904003027 | 23 | 0.0 | 0.0 | 0.00 | 0.30 | 0.30 | 87 | 1013.5 | |
| 20260904002024 | 23 | 194 | 0.0 | 1.6 | 0.00 | 0.30 | 0.30 | 87 | 1013.4 |
| 20260904001020 | 24 | 275 | 0.0 | 1.6 | 0.00 | 0.30 | 0.30 | 86 | 1013.5 |
| 20260904000037 | 24 | 193 | 0.0 | 4.8 | 0.00 | 0.30 | 0.30 | 86 | 1013.5 |
| 20260903235034 | 24 | 113 | 0.0 | 3.2 | 0.00 | 0.30 | 0.30 | 85 | 1013.4 |
| 20260903234031 | 25 | 139 | 1.6 | 3.2 | 0.00 | 0.30 | 0.30 | 83 | 1013.2 |
| 20260903233027 | 25 | 149 | 1.6 | 4.8 | 0.00 | 0.30 | 0.30 | 82 | 1013.1 |
| 20260903232022 | 26 | 162 | 0.0 | 3.2 | 0.00 | 0.30 | 0.30 | 81 | 1013.3 |
| 20260903231019 | 25 | 138 | 0.0 | 3.2 | 0.00 | 0.30 | 0.30 | 82 | 1013.4 |
| 20260903230016 | 25 | 149 | 1.6 | 3.2 | 0.00 | 0.30 | 0.30 | 83 | 1013.4 |
| 20260903225033 | 26 | 159 | 1.6 | 6.4 | 0.00 | 0.30 | 0.30 | 82 | 1013.2 |
| 20260903224030 | 26 | 158 | 1.6 | 4.8 | 0.00 | 0.30 | 0.30 | 82 | 1013.3 |
| 20260903223108 | 26 | 144 | 1.6 | 6.4 | 0.00 | 0.30 | 0.30 | 81 | 1013.3 |
| 20260903222024 | 25 | 175 | 1.6 | 3.2 | 0.00 | 0.30 | 0.30 | 83 | 1013.5 |
| 20260903221021 | 25 | 144 | 1.6 | 4.8 | 0.00 | 0.30 | 0.30 | 83 | 1013.2 |
| 20260903220017 | 25 | 132 | 1.6 | 6.4 | 0.00 | 0.30 | 0.30 | 85 | 1013.4 |
| 20260903215034 | 24 | 189 | 0.0 | 3.2 | 0.00 | 0.30 | 0.30 | 88 | 1013.3 |
| 20260903214032 | 24 | 177 | 3.2 | 11.3 | 0.00 | 0.30 | 0.30 | 88 | 1013.2 |
| 20260903213027 | 24 | 189 | 3.2 | 9.7 | 0.00 | 0.30 | 0.30 | 88 | 1013.2 |
| 20260903212024 | 24 | 174 | 3.2 | 9.7 | 0.00 | 0.30 | 0.30 | 88 | 1013.0 |
| 20260903211041 | 24 | 184 | 3.2 | 6.4 | 0.00 | 0.30 | 0.30 | 88 | 1012.8 |
| 20260903210018 | 24 | 154 | 3.2 | 9.7 | 0.00 | 0.30 | 0.30 | 89 | 1012.9 |
| 20260903205036 | 24 | 157 | 3.2 | 6.4 | 0.00 | 0.30 | 0.30 | 89 | 1013.2 |
| 20260903204032 | 24 | 164 | 3.2 | 6.4 | 0.00 | 0.30 | 0.30 | 86 | 1013.2 |
| 20260903203029 | 25 | 173 | 1.6 | 4.8 | 0.00 | 0.30 | 0.30 | 85 | 1013.5 |
| 20260903202025 | 25 | 158 | 3.2 | 6.4 | 0.00 | 0.30 | 0.30 | 84 | 1013.2 |
| 20260903201042 | 25 | 144 | 1.6 | 4.8 | 0.00 | 0.30 | 0.30 | 85 | 1013.1 |
| 20260903200018 | 24 | 104 | 1.6 | 6.4 | 0.00 | 0.30 | 0.30 | 86 | 1013.1 |
| 20260903195035 | 24 | 111 | 3.2 | 6.4 | 0.00 | 0.30 | 0.30 | 85 | 1013.4 |
| 20260903194052 | 25 | 132 | 1.6 | 4.8 | 0.00 | 0.30 | 0.30 | 83 | 1013.7 |
| 20260903193029 | 25 | 107 | 1.6 | 4.8 | 0.00 | 0.30 | 0.30 | 81 | 1014.1 |
| 20260903192026 | 26 | 105 | 1.6 | 6.4 | 0.00 | 0.30 | 0.30 | 79 | 1014.5 |
| 20260903191023 | 26 | 114 | 1.6 | 4.8 | 0.00 | 0.30 | 0.30 | 77 | 1014.5 |
| 20260903190018 | 27 | 8 | 1.6 | 6.4 | 0.00 | 0.30 | 0.30 | 76 | 1014.2 |
| 20260903185035 | 26 | 3 | 1.6 | 6.4 | 0.00 | 0.30 | 0.30 | 77 | 1014.3 |
| 20260903184032 | 26 | 40 | 1.6 | 6.4 | 0.00 | 0.30 | 0.30 | 80 | 1014.3 |
| 20260903183029 | 24 | 72 | 1.6 | 6.4 | 0.00 | 0.30 | 0.30 | 83 | 1014.1 |
| 20260903182046 | 23 | 107 | 3.2 | 11.3 | 0.00 | 0.30 | 0.30 | 80 | 1014.1 |
| 20260903181021 | 25 | 117 | 3.2 | 9.7 | 0.00 | 0.30 | 0.30 | 78 | 1014.3 |
| 20260903180018 | 26 | 121 | 3.2 | 6.4 | 0.00 | 0.30 | 0.30 | 76 | 1014.5 |
| 20260903175035 | 27 | 232 | 1.6 | 4.8 | 0.00 | 0.30 | 0.30 | 78 | 1014.7 |
| 20260903174051 | 27 | 262 | 1.6 | 3.2 | 0.00 | 0.30 | 0.30 | 80 | 1014.4 |
| 20260903173027 | 26 | 350 | 3.2 | 9.7 | 0.00 | 0.30 | 0.30 | 80 | 1013.5 |
| 20260903172024 | 26 | 325 | 1.6 | 4.8 | 0.00 | 0.30 | 0.30 | 82 | 1013.4 |
| 20260903171021 | 26 | 315 | 0.0 | 3.2 | 0.00 | 0.30 | 0.30 | 83 | 1013.2 |
| 20260903170017 | 25 | 285 | 1.6 | 9.7 | 0.00 | 0.30 | 0.30 | 83 | 1013.3 |
| 20260903165035 | 25 | 280 | 3.2 | 17.7 | 0.00 | 0.30 | 0.30 | 82 | 1013.1 |
| 20260903164030 | 25 | 275 | 6.4 | 17.7 | 0.00 | 0.30 | 0.30 | 83 | 1013.5 |
| 20260903163027 | 25 | 277 | 4.8 | 17.7 | 0.00 | 0.30 | 0.30 | 85 | 1013.8 |
| 20260903162024 | 25 | 270 | 4.8 | 16.1 | 0.00 | 0.30 | 0.30 | 86 | 1014.0 |
| 20260903161021 | 25 | 273 | 8.0 | 20.9 | 0.00 | 0.30 | 0.30 | 87 | 1014.0 |
| 20260903160037 | 24 | 280 | 6.4 | 17.7 | 0.00 | 0.30 | 0.30 | 90 | 1013.9 |
| 20260903155036 | 23 | 277 | 8.0 | 17.7 | 0.03 | 0.38 | 0.30 | 92 | 1013.7 |
| 20260903154051 | 23 | 277 | 6.4 | 12.9 | 0.03 | 0.43 | 0.30 | 93 | 1013.5 |
| 20260903153028 | 23 | 268 | 4.8 | 17.7 | 0.03 | 0.43 | 0.30 | 93 | 1013.2 |
| 20260903152024 | 23 | 271 | 4.8 | 14.5 | 0.08 | 0.43 | 0.30 | 93 | 1013.2 |
| 20260903151021 | 23 | 250 | 4.8 | 17.7 | 0.13 | 0.43 | 0.30 | 95 | 1013.2 |
| 20260903150018 | 22 | 233 | 3.2 | 11.3 | 0.15 | 0.43 | 0.30 | 99 | 1013.3 |
| 20260903145035 | 22 | 209 | 4.8 | 9.7 | 0.28 | 0.41 | 0.28 | 99 | 1013.2 |
| 20260903144032 | 22 | 192 | 1.6 | 4.8 | 0.28 | 0.41 | 0.28 | 99 | 1013.2 |
| 20260903143029 | 22 | 180 | 1.6 | 3.2 | 0.28 | 0.41 | 0.28 | 99 | 1013.3 |
| 20260903142025 | 22 | 0.0 | 0.0 | 0.23 | 0.36 | 0.23 | 99 | 1013.8 | |
| 20260903141022 | 22 | 252 | 0.0 | 3.2 | 0.18 | 0.30 | 0.18 | 99 | 1013.8 |
| 20260903140018 | 22 | 173 | 0.0 | 1.6 | 0.15 | 0.28 | 0.15 | 98 | 1013.9 |
| 20260903135035 | 22 | 254 | 0.0 | 1.6 | 0.00 | 0.13 | 0.00 | 98 | 1014.0 |
| 20260903134051 | 22 | 292 | 0.0 | 3.2 | 0.00 | 0.13 | 0.00 | 99 | 1013.8 |
| 20260903133028 | 23 | 0 | 0.0 | 1.6 | 0.00 | 0.13 | 0.00 | 99 | 1013.4 |
| 20260903132025 | 21 | 9 | 0.0 | 3.2 | 0.00 | 0.13 | 0.00 | 99 | 1013.2 |